createdAt,value
2022-08-03T00:00:53.750Z,1013.31
2022-08-03T00:01:53.738Z,1013.32
2022-08-03T00:02:53.904Z,1013.32
2022-08-03T00:03:53.715Z,1013.33
2022-08-03T00:04:53.739Z,1013.32
2022-08-03T00:06:04.522Z,1013.32
2022-08-03T00:06:54.679Z,1013.31
2022-08-03T00:07:53.670Z,1013.27
2022-08-03T00:08:53.658Z,1013.27
2022-08-03T00:09:53.649Z,1013.26
2022-08-03T00:10:53.642Z,1013.28
2022-08-03T00:11:53.625Z,1013.29
2022-08-03T00:12:53.615Z,1013.30
2022-08-03T00:13:53.604Z,1013.32
2022-08-03T00:14:53.596Z,1013.31
2022-08-03T00:15:53.590Z,1013.26
2022-08-03T00:16:53.582Z,1013.31
2022-08-03T00:17:54.167Z,1013.27
2022-08-03T00:18:53.549Z,1013.28
2022-08-03T00:19:53.538Z,1013.21
2022-08-03T00:20:53.529Z,1013.21
2022-08-03T00:21:53.519Z,1013.23
2022-08-03T00:22:53.525Z,1013.21
2022-08-03T00:23:53.493Z,1013.21
2022-08-03T00:24:53.490Z,1013.21
2022-08-03T00:25:53.471Z,1013.18
2022-08-03T00:26:53.459Z,1013.19
2022-08-03T00:27:53.449Z,1013.18
2022-08-03T00:28:53.452Z,1013.18
2022-08-03T00:29:59.937Z,1013.16
2022-08-03T00:30:54.414Z,1013.13
2022-08-03T00:32:00.193Z,1013.17
2022-08-03T00:32:54.392Z,1013.16
2022-08-03T00:33:58.801Z,1013.14
2022-08-03T00:34:58.856Z,1013.12
2022-08-03T00:35:53.361Z,1013.12
2022-08-03T00:36:53.349Z,1013.13
2022-08-03T00:37:53.338Z,1013.12
2022-08-03T00:38:53.329Z,1013.11
2022-08-03T00:39:53.316Z,1013.10
2022-08-03T00:40:54.310Z,1013.08
2022-08-03T00:41:53.293Z,1013.12
2022-08-03T00:42:53.283Z,1013.08
2022-08-03T00:43:53.270Z,1013.05
2022-08-03T00:44:53.260Z,1013.08
2022-08-03T00:45:53.249Z,1013.08
2022-08-03T00:46:53.244Z,1013.03
2022-08-03T00:47:53.226Z,1013.03
2022-08-03T00:48:53.426Z,1013.03
2022-08-03T00:49:53.204Z,1013.02
2022-08-03T00:50:53.193Z,1013.01
2022-08-03T00:51:53.186Z,1013.00
2022-08-03T00:52:53.177Z,1013.02
2022-08-03T00:53:53.159Z,1013.00
2022-08-03T00:54:53.148Z,1012.99
2022-08-03T00:55:53.138Z,1013.04
2022-08-03T00:57:00.228Z,1013.04
2022-08-03T00:57:54.144Z,1012.99
2022-08-03T00:58:53.104Z,1012.99
2022-08-03T00:59:53.093Z,1012.96
2022-08-03T01:00:53.148Z,1012.96
2022-08-03T01:01:53.073Z,1012.91
2022-08-03T01:02:53.063Z,1012.91
2022-08-03T01:03:53.064Z,1012.93
2022-08-03T01:04:53.038Z,1012.94
2022-08-03T01:05:53.030Z,1012.97
2022-08-03T01:06:53.018Z,1012.94
2022-08-03T01:07:53.004Z,1012.95
2022-08-03T01:08:52.996Z,1012.99
2022-08-03T01:09:53.003Z,1012.97
2022-08-03T01:10:52.974Z,1012.94
2022-08-03T01:12:01.039Z,1012.96
2022-08-03T01:12:53.951Z,1012.97
2022-08-03T01:14:03.589Z,1012.97
2022-08-03T01:14:53.958Z,1012.91
2022-08-03T01:15:52.915Z,1012.93
2022-08-03T01:16:52.904Z,1012.90
2022-08-03T01:17:52.895Z,1012.90
2022-08-03T01:18:52.916Z,1012.89
2022-08-03T01:19:52.875Z,1012.87
2022-08-03T01:20:52.868Z,1012.91
2022-08-03T01:21:52.851Z,1012.91
2022-08-03T01:22:52.840Z,1012.88
2022-08-03T01:23:52.831Z,1012.83
2022-08-03T01:24:52.818Z,1012.86
2022-08-03T01:25:54.417Z,1012.86
2022-08-03T01:26:52.801Z,1012.89
2022-08-03T01:27:52.783Z,1012.85
2022-08-03T01:28:52.771Z,1012.85
2022-08-03T01:29:52.761Z,1012.87
2022-08-03T01:30:52.750Z,1012.88
2022-08-03T01:33:00.026Z,1012.83
2022-08-03T01:33:00.888Z,1012.82
2022-08-03T01:33:53.715Z,1012.83
2022-08-03T01:34:52.706Z,1012.81
2022-08-03T01:35:52.696Z,1012.81
2022-08-03T01:36:52.684Z,1012.74
2022-08-03T01:37:52.674Z,1012.77
2022-08-03T01:38:52.681Z,1012.76
2022-08-03T01:39:52.650Z,1012.79
2022-08-03T01:40:52.650Z,1012.78
2022-08-03T01:41:52.629Z,1012.78
2022-08-03T01:42:52.622Z,1012.74
2022-08-03T01:44:26.644Z,1012.74
2022-08-03T01:44:53.600Z,1012.72
2022-08-03T01:45:52.583Z,1012.70
2022-08-03T01:46:52.572Z,1012.71
2022-08-03T01:47:52.565Z,1012.73
2022-08-03T01:48:52.656Z,1012.70
2022-08-03T01:49:52.540Z,1012.67
2022-08-03T01:50:52.535Z,1012.69
2022-08-03T01:51:56.622Z,1012.69
2022-08-03T01:52:53.506Z,1012.69
2022-08-03T01:53:52.495Z,1012.68
2022-08-03T01:54:52.483Z,1012.67
2022-08-03T01:55:52.472Z,1012.68
2022-08-03T01:56:52.470Z,1012.67
2022-08-03T01:58:05.920Z,1012.72
2022-08-03T01:58:53.438Z,1012.67
2022-08-03T01:59:52.429Z,1012.70
2022-08-03T02:00:52.511Z,1012.69
2022-08-03T02:02:28.074Z,1012.65
2022-08-03T02:02:53.401Z,1012.68
2022-08-03T02:04:00.911Z,1012.65
2022-08-03T02:04:53.372Z,1012.65
2022-08-03T02:06:11.488Z,1012.68
2022-08-03T02:06:59.755Z,1012.70
2022-08-03T02:07:53.341Z,1012.68
2022-08-03T02:08:52.334Z,1012.70
2022-08-03T02:09:52.317Z,1012.72
2022-08-03T02:10:52.306Z,1012.71
2022-08-03T02:11:52.298Z,1012.73
2022-08-03T02:12:52.284Z,1012.76
2022-08-03T02:13:52.273Z,1012.73
2022-08-03T02:14:52.282Z,1012.74
2022-08-03T02:15:52.250Z,1012.70
2022-08-03T02:16:52.239Z,1012.69
2022-08-03T02:17:52.228Z,1012.71
2022-08-03T02:18:52.216Z,1012.69
2022-08-03T02:19:52.206Z,1012.68
2022-08-03T02:20:52.202Z,1012.69
2022-08-03T02:21:57.430Z,1012.67
2022-08-03T02:22:53.173Z,1012.69
2022-08-03T02:23:52.162Z,1012.70
2022-08-03T02:24:52.151Z,1012.65
2022-08-03T02:25:52.140Z,1012.67
2022-08-03T02:26:52.135Z,1012.65
2022-08-03T02:27:52.121Z,1012.63
2022-08-03T02:28:52.107Z,1012.64
2022-08-03T02:29:52.095Z,1012.64
2022-08-03T02:30:53.755Z,1012.68
2022-08-03T02:31:52.073Z,1012.65
2022-08-03T02:32:52.068Z,1012.64
2022-08-03T02:33:52.051Z,1012.63
2022-08-03T02:34:52.039Z,1012.66
2022-08-03T02:35:52.028Z,1012.66
2022-08-03T02:36:52.018Z,1012.69
2022-08-03T02:37:52.006Z,1012.68
2022-08-03T02:38:52.009Z,1012.65
2022-08-03T02:39:51.985Z,1012.66
2022-08-03T02:40:51.975Z,1012.70
2022-08-03T02:41:51.961Z,1012.66
2022-08-03T02:42:51.965Z,1012.67
2022-08-03T02:44:06.472Z,1012.69
2022-08-03T02:44:52.956Z,1012.65
2022-08-03T02:45:51.917Z,1012.69
2022-08-03T02:46:51.908Z,1012.63
2022-08-03T02:47:54.160Z,1012.64
2022-08-03T02:48:51.925Z,1012.70
2022-08-03T02:49:52.595Z,1012.69
2022-08-03T02:50:51.874Z,1012.71
2022-08-03T02:51:51.851Z,1012.68
2022-08-03T02:52:51.840Z,1012.70
2022-08-03T02:53:51.832Z,1012.72
2022-08-03T02:54:51.819Z,1012.71
2022-08-03T02:55:51.810Z,1012.67
2022-08-03T02:56:51.801Z,1012.74
2022-08-03T02:57:51.786Z,1012.72
2022-08-03T02:58:51.773Z,1012.71
2022-08-03T02:59:51.766Z,1012.69
2022-08-03T03:00:51.862Z,1012.73
2022-08-03T03:01:51.743Z,1012.70
2022-08-03T03:02:51.736Z,1012.69
2022-08-03T03:03:51.719Z,1012.70
2022-08-03T03:05:52.758Z,1012.71
2022-08-03T03:05:57.759Z,1012.69
2022-08-03T03:06:52.685Z,1012.72
2022-08-03T03:07:53.174Z,1012.69
2022-08-03T03:08:51.672Z,1012.73
2022-08-03T03:09:51.652Z,1012.68
2022-08-03T03:10:55.313Z,1012.73
2022-08-03T03:11:51.632Z,1012.69
2022-08-03T03:12:51.618Z,1012.74
2022-08-03T03:13:51.607Z,1012.70
2022-08-03T03:14:51.613Z,1012.73
2022-08-03T03:15:51.585Z,1012.71
2022-08-03T03:16:51.934Z,1012.71
2022-08-03T03:17:52.562Z,1012.74
2022-08-03T03:18:51.552Z,1012.76
2022-08-03T03:19:51.541Z,1012.71
2022-08-03T03:20:51.581Z,1012.74
2022-08-03T03:21:51.519Z,1012.75
2022-08-03T03:22:51.510Z,1012.72
2022-08-03T03:23:51.498Z,1012.75
2022-08-03T03:24:51.488Z,1012.74
2022-08-03T03:25:51.475Z,1012.73
2022-08-03T03:26:51.469Z,1012.77
2022-08-03T03:27:51.452Z,1012.75
2022-08-03T03:28:51.442Z,1012.75
2022-08-03T03:29:51.433Z,1012.72
2022-08-03T03:30:52.897Z,1012.72
2022-08-03T03:31:51.407Z,1012.74
2022-08-03T03:32:52.644Z,1012.72
2022-08-03T03:33:51.387Z,1012.75
2022-08-03T03:34:51.375Z,1012.74
2022-08-03T03:35:51.364Z,1012.71
2022-08-03T03:36:51.352Z,1012.74
2022-08-03T03:37:51.342Z,1012.75
2022-08-03T03:38:51.337Z,1012.74
2022-08-03T03:39:51.318Z,1012.72
2022-08-03T03:40:51.312Z,1012.75
2022-08-03T03:41:51.297Z,1012.75
2022-08-03T03:42:51.286Z,1012.77
2022-08-03T03:43:51.275Z,1012.79
2022-08-03T03:44:51.287Z,1012.75
2022-08-03T03:45:51.253Z,1012.76
2022-08-03T03:46:51.244Z,1012.80
2022-08-03T03:47:51.232Z,1012.73
2022-08-03T03:48:51.221Z,1012.71
2022-08-03T03:49:51.210Z,1012.77
2022-08-03T03:50:51.213Z,1012.76
2022-08-03T03:51:51.186Z,1012.74
2022-08-03T03:52:51.175Z,1012.72
2022-08-03T03:53:51.164Z,1012.79
2022-08-03T03:54:51.154Z,1012.74
2022-08-03T03:55:59.762Z,1012.71
2022-08-03T03:56:52.135Z,1012.70
2022-08-03T03:57:51.120Z,1012.68
2022-08-03T03:58:51.108Z,1012.71
2022-08-03T03:59:51.096Z,1012.72
2022-08-03T04:00:51.177Z,1012.74
2022-08-03T04:01:59.185Z,1012.73
2022-08-03T04:02:52.100Z,1012.74
2022-08-03T04:03:51.053Z,1012.74
2022-08-03T04:04:51.042Z,1012.74
2022-08-03T04:05:51.030Z,1012.70
2022-08-03T04:06:51.018Z,1012.71
2022-08-03T04:07:51.008Z,1012.71
2022-08-03T04:08:51.008Z,1012.70
2022-08-03T04:09:50.993Z,1012.69
2022-08-03T04:10:50.975Z,1012.71
2022-08-03T04:11:50.963Z,1012.70
2022-08-03T04:12:50.953Z,1012.69
2022-08-03T04:13:50.943Z,1012.70
2022-08-03T04:14:50.939Z,1012.70
2022-08-03T04:15:50.919Z,1012.71
2022-08-03T04:16:50.912Z,1012.68
2022-08-03T04:17:50.901Z,1012.74
2022-08-03T04:18:50.887Z,1012.70
2022-08-03T04:19:50.875Z,1012.70
2022-08-03T04:20:50.881Z,1012.70
2022-08-03T04:21:50.854Z,1012.71
2022-08-03T04:22:50.842Z,1012.70
2022-08-03T04:23:50.833Z,1012.71
2022-08-03T04:24:50.821Z,1012.70
2022-08-03T04:25:50.810Z,1012.70
2022-08-03T04:26:52.807Z,1012.75
2022-08-03T04:28:08.154Z,1012.76
2022-08-03T04:28:51.774Z,1012.74
2022-08-03T04:29:50.765Z,1012.76
2022-08-03T04:32:08.678Z,1012.82
2022-08-03T04:33:08.663Z,1012.76
2022-08-03T04:34:08.654Z,1012.79
2022-08-03T04:35:08.642Z,1012.85
2022-08-03T04:36:08.629Z,1012.86
2022-08-03T04:37:08.622Z,1012.84
2022-08-03T04:38:08.613Z,1012.86
2022-08-03T04:39:08.595Z,1012.87
2022-08-03T04:40:08.586Z,1012.89
2022-08-03T04:41:08.575Z,1012.86
2022-08-03T04:42:09.248Z,1012.89
2022-08-03T04:43:08.552Z,1012.89
2022-08-03T04:44:08.546Z,1012.93
2022-08-03T04:45:08.533Z,1012.93
2022-08-03T04:46:08.522Z,1012.96
2022-08-03T04:47:08.509Z,1012.93
2022-08-03T04:48:08.498Z,1012.98
2022-08-03T04:49:08.537Z,1012.97
2022-08-03T04:50:12.545Z,1012.97
2022-08-03T04:51:09.463Z,1012.96
2022-08-03T04:52:08.454Z,1012.95
2022-08-03T04:53:08.442Z,1012.96
2022-08-03T04:54:08.432Z,1012.94
2022-08-03T04:55:08.419Z,1012.92
2022-08-03T04:56:08.426Z,1012.92
2022-08-03T04:57:08.417Z,1012.90
2022-08-03T04:58:08.387Z,1012.91
2022-08-03T04:59:08.375Z,1012.91
2022-08-03T05:00:08.365Z,1012.96
2022-08-03T05:01:08.365Z,1012.93
2022-08-03T05:02:08.404Z,1012.93
2022-08-03T05:03:23.828Z,1012.94
2022-08-03T05:04:09.318Z,1012.97
2022-08-03T05:05:08.308Z,1012.95
2022-08-03T05:06:11.051Z,1012.91
2022-08-03T05:07:12.521Z,1012.93
2022-08-03T05:08:11.179Z,1012.93
2022-08-03T05:09:08.266Z,1012.95
2022-08-03T05:10:14.701Z,1012.95
2022-08-03T05:11:09.241Z,1012.94
2022-08-03T05:12:08.232Z,1012.93
2022-08-03T05:13:08.219Z,1012.94
2022-08-03T05:14:08.217Z,1012.93
2022-08-03T05:15:08.198Z,1012.96
2022-08-03T05:16:08.188Z,1012.92
2022-08-03T05:17:08.180Z,1012.95
2022-08-03T05:18:13.374Z,1012.96
2022-08-03T05:19:09.158Z,1012.93
2022-08-03T05:20:08.141Z,1012.94
2022-08-03T05:21:08.132Z,1012.92
2022-08-03T05:22:08.119Z,1012.92
2022-08-03T05:23:08.109Z,1012.97
2022-08-03T05:24:08.098Z,1012.97
2022-08-03T05:25:08.092Z,1012.95
2022-08-03T05:26:08.076Z,1012.97
2022-08-03T05:27:08.064Z,1012.96
2022-08-03T05:28:08.053Z,1012.92
2022-08-03T05:29:08.044Z,1012.92
2022-08-03T05:30:31.266Z,1012.93
2022-08-03T05:31:09.051Z,1012.95
2022-08-03T05:32:08.490Z,1012.96
2022-08-03T05:33:08.000Z,1012.92
2022-08-03T05:34:07.993Z,1012.94
2022-08-03T05:36:01.149Z,1012.94
2022-08-03T05:36:08.966Z,1012.95
2022-08-03T05:37:07.970Z,1013.00
2022-08-03T05:38:07.943Z,1012.97
2022-08-03T05:39:07.934Z,1013.03
2022-08-03T05:40:07.921Z,1013.02
2022-08-03T05:41:22.614Z,1013.07
2022-08-03T05:42:08.927Z,1013.06
2022-08-03T05:43:07.887Z,1013.07
2022-08-03T05:44:07.878Z,1013.09
2022-08-03T05:45:07.865Z,1013.07
2022-08-03T05:46:12.230Z,1013.09
2022-08-03T05:47:08.846Z,1013.08
2022-08-03T05:48:07.839Z,1013.09
2022-08-03T05:49:07.910Z,1013.12
2022-08-03T05:50:07.810Z,1013.10
2022-08-03T05:51:07.853Z,1013.09
2022-08-03T05:52:14.900Z,1013.10
2022-08-03T05:53:08.783Z,1013.13
2022-08-03T05:54:07.766Z,1013.07
2022-08-03T05:55:07.757Z,1013.09
2022-08-03T05:56:14.374Z,1013.11
2022-08-03T05:57:08.735Z,1013.15
2022-08-03T05:58:07.725Z,1013.14
2022-08-03T05:59:35.756Z,1013.11
2022-08-03T06:00:08.699Z,1013.13
2022-08-03T06:01:07.817Z,1013.11
2022-08-03T06:02:07.678Z,1013.11
2022-08-03T06:03:07.668Z,1013.08
2022-08-03T06:04:07.655Z,1013.09
2022-08-03T06:05:07.752Z,1013.09
2022-08-03T06:06:07.636Z,1013.10
2022-08-03T06:07:07.632Z,1013.11
2022-08-03T06:08:07.611Z,1013.09
2022-08-03T06:09:07.600Z,1013.11
2022-08-03T06:10:37.133Z,1013.15
2022-08-03T06:11:08.583Z,1013.13
2022-08-03T06:12:10.103Z,1013.14
2022-08-03T06:13:08.557Z,1013.13
2022-08-03T06:14:07.545Z,1013.13
2022-08-03T06:15:07.852Z,1013.20
2022-08-03T06:16:07.524Z,1013.13
2022-08-03T06:17:07.543Z,1013.12
2022-08-03T06:18:07.515Z,1013.12
2022-08-03T06:19:07.495Z,1013.11
2022-08-03T06:20:07.483Z,1013.06
2022-08-03T06:21:14.059Z,1013.09
2022-08-03T06:22:08.464Z,1013.03
2022-08-03T06:23:07.528Z,1013.07
2022-08-03T06:24:07.435Z,1013.11
2022-08-03T06:25:11.293Z,1013.06
2022-08-03T06:26:08.412Z,1013.11
2022-08-03T06:27:07.402Z,1013.11
2022-08-03T06:28:09.489Z,1013.07
2022-08-03T06:29:08.537Z,1013.08
2022-08-03T06:30:07.369Z,1013.08
2022-08-03T06:31:07.358Z,1013.08
2022-08-03T06:32:07.347Z,1013.08
2022-08-03T06:33:08.223Z,1013.07
2022-08-03T06:34:34.506Z,1013.05
2022-08-03T06:35:08.313Z,1013.07
2022-08-03T06:36:07.303Z,1013.07
2022-08-03T06:37:07.293Z,1013.05
2022-08-03T06:38:07.280Z,1013.07
2022-08-03T06:39:08.282Z,1013.06
2022-08-03T06:40:07.279Z,1013.08
2022-08-03T06:41:07.259Z,1013.07
2022-08-03T06:42:07.236Z,1013.12
2022-08-03T06:43:10.721Z,1013.07
2022-08-03T06:44:08.213Z,1013.09
2022-08-03T06:45:07.206Z,1013.09
2022-08-03T06:46:07.199Z,1013.13
2022-08-03T06:47:07.183Z,1013.11
2022-08-03T06:48:07.169Z,1013.08
2022-08-03T06:49:07.237Z,1013.08
2022-08-03T06:50:16.207Z,1013.10
2022-08-03T06:51:08.165Z,1013.11
2022-08-03T06:52:07.177Z,1013.09
2022-08-03T06:53:07.115Z,1013.09
2022-08-03T06:54:07.103Z,1013.08
2022-08-03T06:55:07.093Z,1013.09
2022-08-03T06:56:07.080Z,1013.08
2022-08-03T06:57:07.075Z,1013.07
2022-08-03T06:58:07.061Z,1013.09
2022-08-03T06:59:07.048Z,1013.10
2022-08-03T07:00:11.836Z,1013.13
2022-08-03T07:01:08.103Z,1013.13
2022-08-03T07:02:07.016Z,1013.11
2022-08-03T07:03:07.011Z,1013.11
2022-08-03T07:04:07.003Z,1013.10
2022-08-03T07:05:06.987Z,1013.08
2022-08-03T07:06:06.974Z,1013.08
2022-08-03T07:07:06.970Z,1013.08
2022-08-03T07:08:06.960Z,1013.09
2022-08-03T07:09:06.944Z,1013.11
2022-08-03T07:10:06.929Z,1013.08
2022-08-03T07:11:06.914Z,1013.07
2022-08-03T07:12:06.904Z,1013.12
2022-08-03T07:13:06.894Z,1013.09
2022-08-03T07:14:06.885Z,1013.10
2022-08-03T07:15:06.877Z,1013.10
2022-08-03T07:16:06.858Z,1013.09
2022-08-03T07:17:11.774Z,1013.06
2022-08-03T07:18:07.836Z,1013.08
2022-08-03T07:19:06.827Z,1013.06
2022-08-03T07:20:06.816Z,1013.08
2022-08-03T07:21:06.810Z,1013.09
2022-08-03T07:22:06.795Z,1013.10
2022-08-03T07:23:06.787Z,1013.12
2022-08-03T07:24:06.772Z,1013.11
2022-08-03T07:25:06.762Z,1013.10
2022-08-03T07:26:06.756Z,1013.07
2022-08-03T07:27:06.768Z,1013.06
2022-08-03T07:28:06.728Z,1013.08
2022-08-03T07:29:11.768Z,1013.07
2022-08-03T07:30:07.708Z,1013.07
2022-08-03T07:31:06.694Z,1013.07
2022-08-03T07:32:06.683Z,1013.05
2022-08-03T07:33:06.678Z,1013.08
2022-08-03T07:34:06.661Z,1013.07
2022-08-03T07:35:08.763Z,1013.04
2022-08-03T07:36:07.639Z,1013.10
2022-08-03T07:37:06.631Z,1013.08
2022-08-03T07:38:06.619Z,1013.06
2022-08-03T07:39:16.611Z,1013.06
2022-08-03T07:40:07.597Z,1013.02
2022-08-03T07:41:06.584Z,1013.05
2022-08-03T07:42:06.576Z,1013.06
2022-08-03T07:43:06.562Z,1013.08
2022-08-03T07:44:06.551Z,1013.09
2022-08-03T07:45:06.545Z,1013.05
2022-08-03T07:46:06.529Z,1013.06
2022-08-03T07:47:06.517Z,1013.05
2022-08-03T07:48:11.953Z,1013.08
2022-08-03T07:49:07.597Z,1013.11
2022-08-03T07:50:06.499Z,1013.11
2022-08-03T07:51:06.479Z,1013.09
2022-08-03T07:52:06.461Z,1013.09
2022-08-03T07:53:06.454Z,1013.09
2022-08-03T07:54:06.442Z,1013.11
2022-08-03T07:55:06.483Z,1013.09
2022-08-03T07:56:06.417Z,1013.12
2022-08-03T07:57:06.415Z,1013.07
2022-08-03T07:58:06.403Z,1013.09
2022-08-03T07:59:06.384Z,1013.09
2022-08-03T08:00:06.378Z,1013.08
2022-08-03T08:01:06.395Z,1013.09
2022-08-03T08:02:06.352Z,1013.12
2022-08-03T08:03:06.345Z,1013.11
2022-08-03T08:04:06.331Z,1013.10
2022-08-03T08:05:06.317Z,1013.08
2022-08-03T08:06:06.311Z,1013.10
2022-08-03T08:07:06.297Z,1013.09
2022-08-03T08:08:06.286Z,1013.12
2022-08-03T08:09:06.293Z,1013.09
2022-08-03T08:10:06.263Z,1013.04
2022-08-03T08:11:06.253Z,1013.10
2022-08-03T08:12:06.240Z,1013.12
2022-08-03T08:13:07.228Z,1013.08
2022-08-03T08:14:06.218Z,1013.09
2022-08-03T08:15:06.213Z,1013.11
2022-08-03T08:16:06.195Z,1013.12
2022-08-03T08:17:07.478Z,1013.11
2022-08-03T08:18:06.175Z,1013.13
2022-08-03T08:19:06.162Z,1013.10
2022-08-03T08:20:06.155Z,1013.11
2022-08-03T08:21:06.146Z,1013.10
2022-08-03T08:22:06.130Z,1013.11
2022-08-03T08:23:08.870Z,1013.04
2022-08-03T08:24:13.325Z,1013.04
2022-08-03T08:25:07.095Z,1013.07
2022-08-03T08:26:06.085Z,1013.07
2022-08-03T08:27:06.083Z,1013.07
2022-08-03T08:28:29.547Z,1013.06
2022-08-03T08:29:07.051Z,1013.15
2022-08-03T08:30:11.521Z,1013.14
2022-08-03T08:31:07.029Z,1013.09
2022-08-03T08:32:06.018Z,1013.09
2022-08-03T08:33:06.014Z,1013.10
2022-08-03T08:34:06.000Z,1013.11
2022-08-03T08:35:05.988Z,1013.11
2022-08-03T08:36:05.977Z,1013.08
2022-08-03T08:37:05.963Z,1013.11
2022-08-03T08:38:05.983Z,1013.09
2022-08-03T08:39:05.961Z,1013.13
2022-08-03T08:40:05.933Z,1013.15
2022-08-03T08:41:05.919Z,1013.16
2022-08-03T08:42:05.908Z,1013.09
2022-08-03T08:43:07.652Z,1013.07
2022-08-03T08:44:05.886Z,1013.08
2022-08-03T08:45:06.379Z,1013.01
2022-08-03T08:46:05.864Z,1013.08
2022-08-03T08:47:05.854Z,1013.02
2022-08-03T08:48:08.368Z,1013.11
2022-08-03T08:49:05.846Z,1013.06
2022-08-03T08:50:10.083Z,1013.09
2022-08-03T08:51:05.817Z,1013.08
2022-08-03T08:52:24.908Z,1013.05
2022-08-03T08:53:06.784Z,1013.04
2022-08-03T08:54:05.774Z,1013.03
2022-08-03T08:55:05.765Z,1013.06
2022-08-03T08:56:05.752Z,1013.07
2022-08-03T08:57:16.497Z,1013.07
2022-08-03T08:58:06.729Z,1013.06
2022-08-03T08:59:05.719Z,1013.06
2022-08-03T09:00:05.712Z,1013.07
2022-08-03T09:01:05.839Z,1013.09
2022-08-03T09:02:05.687Z,1013.05
2022-08-03T09:03:05.707Z,1013.00
2022-08-03T09:04:05.664Z,1013.00
2022-08-03T09:05:07.627Z,1013.00
2022-08-03T09:06:05.642Z,1013.04
2022-08-03T09:07:19.549Z,1013.01
2022-08-03T09:08:06.635Z,1013.00
2022-08-03T09:09:05.609Z,1013.03
2022-08-03T09:10:12.162Z,1013.05
2022-08-03T09:11:06.585Z,1013.01
2022-08-03T09:12:35.372Z,1013.10
2022-08-03T09:13:06.563Z,1013.00
2022-08-03T09:14:05.561Z,1013.03
2022-08-03T09:15:16.881Z,1012.98
2022-08-03T09:16:06.530Z,1012.94
2022-08-03T09:17:05.520Z,1012.93
2022-08-03T09:18:05.511Z,1012.96
2022-08-03T09:19:05.499Z,1012.98
2022-08-03T09:20:05.503Z,1012.95
2022-08-03T09:21:24.268Z,1012.97
2022-08-03T09:22:06.470Z,1012.99
2022-08-03T09:23:19.062Z,1012.97
2022-08-03T09:24:10.490Z,1012.93
2022-08-03T09:25:23.786Z,1012.86
2022-08-03T09:26:06.420Z,1012.91
2022-08-03T09:27:05.410Z,1012.89
2022-08-03T09:28:05.399Z,1012.88
2022-08-03T09:29:09.549Z,1012.85
2022-08-03T09:30:06.376Z,1012.88
2022-08-03T09:31:06.373Z,1012.88
2022-08-03T09:32:05.355Z,1012.85
2022-08-03T09:33:05.346Z,1012.87
2022-08-03T09:34:05.335Z,1012.82
2022-08-03T09:35:05.322Z,1012.76
2022-08-03T09:36:05.311Z,1012.79
2022-08-03T09:37:05.307Z,1012.78
2022-08-03T09:38:13.581Z,1012.82
2022-08-03T09:39:06.275Z,1012.82
2022-08-03T09:40:05.266Z,1012.83
2022-08-03T09:41:05.255Z,1012.84
2022-08-03T09:42:05.250Z,1012.82
2022-08-03T09:43:05.262Z,1012.84
2022-08-03T09:44:05.223Z,1012.85
2022-08-03T09:45:05.211Z,1012.81
2022-08-03T09:46:05.204Z,1012.83
2022-08-03T09:47:05.189Z,1012.82
2022-08-03T09:48:05.189Z,1012.88
2022-08-03T09:49:05.255Z,1012.86
2022-08-03T09:50:06.154Z,1012.86
2022-08-03T09:51:13.075Z,1012.84
2022-08-03T09:52:31.920Z,1012.86
2022-08-03T09:53:06.122Z,1012.82
2022-08-03T09:54:09.561Z,1012.89
2022-08-03T09:55:06.105Z,1012.88
2022-08-03T09:56:35.605Z,1012.90
2022-08-03T09:57:06.077Z,1012.87
2022-08-03T09:58:05.069Z,1012.86
2022-08-03T09:59:05.058Z,1012.87
2022-08-03T10:00:08.216Z,1012.85
2022-08-03T10:01:05.346Z,1012.76
2022-08-03T10:02:05.024Z,1012.74
2022-08-03T10:03:05.012Z,1012.78
2022-08-03T10:04:05.411Z,1012.76
2022-08-03T10:05:04.992Z,1012.75
2022-08-03T10:06:04.981Z,1012.77
2022-08-03T10:07:04.974Z,1012.74
2022-08-03T10:08:04.959Z,1012.76
2022-08-03T10:09:04.945Z,1012.75
2022-08-03T10:10:30.370Z,1012.78
2022-08-03T10:11:05.924Z,1012.72
2022-08-03T10:12:04.914Z,1012.77
2022-08-03T10:13:04.908Z,1012.72
2022-08-03T10:14:04.889Z,1012.64
2022-08-03T10:15:04.880Z,1012.63
2022-08-03T10:16:21.867Z,1012.63
2022-08-03T10:17:05.856Z,1012.62
2022-08-03T10:18:04.846Z,1012.60
2022-08-03T10:19:04.842Z,1012.62
2022-08-03T10:20:04.823Z,1012.61
2022-08-03T10:21:04.813Z,1012.59
2022-08-03T10:22:04.802Z,1012.63
2022-08-03T10:23:04.791Z,1012.56
2022-08-03T10:24:04.781Z,1012.56
2022-08-03T10:25:04.775Z,1012.56
2022-08-03T10:26:04.759Z,1012.57
2022-08-03T10:27:04.752Z,1012.58
2022-08-03T10:28:04.736Z,1012.56
2022-08-03T10:29:04.725Z,1012.60
2022-08-03T10:30:05.719Z,1012.57
2022-08-03T10:31:04.702Z,1012.60
2022-08-03T10:32:04.692Z,1012.66
2022-08-03T10:33:04.681Z,1012.58
2022-08-03T10:34:05.668Z,1012.56
2022-08-03T10:35:18.923Z,1012.52
2022-08-03T10:36:05.652Z,1012.56
2022-08-03T10:37:04.638Z,1012.50
2022-08-03T10:38:04.626Z,1012.46
2022-08-03T10:39:04.615Z,1012.47
2022-08-03T10:40:05.602Z,1012.46
2022-08-03T10:41:04.592Z,1012.47
2022-08-03T10:42:04.588Z,1012.50
2022-08-03T10:43:04.570Z,1012.50
2022-08-03T10:44:04.562Z,1012.49
2022-08-03T10:45:04.548Z,1012.49
2022-08-03T10:46:04.536Z,1012.45
2022-08-03T10:47:04.527Z,1012.43
2022-08-03T10:48:04.519Z,1012.41
2022-08-03T10:49:04.534Z,1012.40
2022-08-03T10:50:04.493Z,1012.38
2022-08-03T10:51:04.481Z,1012.41
2022-08-03T10:52:11.199Z,1012.40
2022-08-03T10:53:05.480Z,1012.41
2022-08-03T10:54:04.485Z,1012.45
2022-08-03T10:55:07.553Z,1012.34
2022-08-03T10:56:05.570Z,1012.33
2022-08-03T10:57:13.461Z,1012.37
2022-08-03T10:58:10.783Z,1012.37
2022-08-03T10:59:05.401Z,1012.36
2022-08-03T11:00:04.387Z,1012.35
2022-08-03T11:01:04.462Z,1012.35
2022-08-03T11:02:04.359Z,1012.45
2022-08-03T11:03:04.352Z,1012.37
2022-08-03T11:04:09.441Z,1012.40
2022-08-03T11:05:05.331Z,1012.36
2022-08-03T11:06:04.316Z,1012.38
2022-08-03T11:07:04.308Z,1012.33
2022-08-03T11:08:04.293Z,1012.35
2022-08-03T11:09:04.281Z,1012.31
2022-08-03T11:10:07.773Z,1012.30
2022-08-03T11:11:05.266Z,1012.29
2022-08-03T11:12:04.250Z,1012.27
2022-08-03T11:13:04.238Z,1012.28
2022-08-03T11:14:04.227Z,1012.25
2022-08-03T11:15:04.216Z,1012.17
2022-08-03T11:16:06.702Z,1012.15
2022-08-03T11:17:04.209Z,1012.24
2022-08-03T11:18:04.187Z,1012.23
2022-08-03T11:19:04.171Z,1012.23
2022-08-03T11:20:04.273Z,1012.30
2022-08-03T11:21:04.153Z,1012.22
2022-08-03T11:22:04.140Z,1012.19
2022-08-03T11:23:04.134Z,1012.23
2022-08-03T11:24:06.619Z,1012.23
2022-08-03T11:25:04.106Z,1012.20
2022-08-03T11:26:04.094Z,1012.20
2022-08-03T11:27:05.915Z,1012.21
2022-08-03T11:28:04.073Z,1012.22
2022-08-03T11:29:04.069Z,1012.22
2022-08-03T11:30:04.050Z,1012.25
2022-08-03T11:31:04.049Z,1012.19
2022-08-03T11:32:04.040Z,1012.19
2022-08-03T11:33:04.017Z,1012.18
2022-08-03T11:34:04.008Z,1012.21
2022-08-03T11:35:04.006Z,1012.23
2022-08-03T11:36:03.989Z,1012.27
2022-08-03T11:37:03.974Z,1012.26
2022-08-03T11:38:04.543Z,1012.19
2022-08-03T11:39:04.008Z,1012.16
2022-08-03T11:40:03.949Z,1012.18
2022-08-03T11:41:03.940Z,1012.18
2022-08-03T11:42:03.928Z,1012.25
2022-08-03T11:43:03.908Z,1012.25
2022-08-03T11:44:03.897Z,1012.15
2022-08-03T11:45:03.885Z,1012.22
2022-08-03T11:46:03.875Z,1012.17
2022-08-03T11:47:03.869Z,1012.13
2022-08-03T11:48:03.853Z,1012.11
2022-08-03T11:49:09.076Z,1012.11
2022-08-03T11:50:04.830Z,1012.16
2022-08-03T11:51:03.819Z,1012.17
2022-08-03T11:52:03.808Z,1012.22
2022-08-03T11:53:03.803Z,1012.27
2022-08-03T11:54:03.786Z,1012.27
2022-08-03T11:55:03.774Z,1012.23
2022-08-03T11:56:03.766Z,1012.19
2022-08-03T11:57:03.756Z,1012.16
2022-08-03T11:59:10.718Z,1012.11
2022-08-03T11:59:20.664Z,1012.05
2022-08-03T12:00:04.719Z,1012.09
2022-08-03T12:01:03.707Z,1012.09
2022-08-03T12:02:03.699Z,1012.12
2022-08-03T12:03:03.757Z,1012.11
2022-08-03T12:04:03.681Z,1012.08
2022-08-03T12:05:03.672Z,1012.08
2022-08-03T12:06:03.658Z,1012.10
2022-08-03T12:07:03.646Z,1012.05